sensor_id;sensor_type;location;lat;lon;timestamp;P1;durP1;ratioP1;P2;durP2;ratioP2
37453;SDS011;23315;52.078;4.756;2023-09-30T00:01:49;10.25;;;3.15;;
37453;SDS011;23315;52.078;4.756;2023-09-30T00:04:17;7.85;;;2.20;;
37453;SDS011;23315;52.078;4.756;2023-09-30T00:06:42;8.50;;;2.47;;
37453;SDS011;23315;52.078;4.756;2023-09-30T00:09:08;6.65;;;2.53;;
37453;SDS011;23315;52.078;4.756;2023-09-30T00:11:33;10.05;;;2.53;;
37453;SDS011;23315;52.078;4.756;2023-09-30T00:13:59;7.00;;;2.20;;
37453;SDS011;23315;52.078;4.756;2023-09-30T00:16:25;8.88;;;3.72;;
37453;SDS011;23315;52.078;4.756;2023-09-30T00:18:50;9.68;;;2.65;;
37453;SDS011;23315;52.078;4.756;2023-09-30T00:21:16;4.43;;;2.13;;
37453;SDS011;23315;52.078;4.756;2023-09-30T00:23:41;8.13;;;2.10;;
37453;SDS011;23315;52.078;4.756;2023-09-30T00:26:06;7.10;;;2.25;;
37453;SDS011;23315;52.078;4.756;2023-09-30T00:28:32;6.25;;;2.15;;
37453;SDS011;23315;52.078;4.756;2023-09-30T00:30:57;7.88;;;2.35;;
37453;SDS011;23315;52.078;4.756;2023-09-30T00:33:23;7.22;;;2.35;;
37453;SDS011;23315;52.078;4.756;2023-09-30T00:35:48;8.25;;;2.35;;
37453;SDS011;23315;52.078;4.756;2023-09-30T00:38:13;8.05;;;2.42;;
37453;SDS011;23315;52.078;4.756;2023-09-30T00:40:45;10.05;;;2.30;;
37453;SDS011;23315;52.078;4.756;2023-09-30T00:43:17;9.68;;;2.63;;
37453;SDS011;23315;52.078;4.756;2023-09-30T00:45:47;6.18;;;2.35;;
37453;SDS011;23315;52.078;4.756;2023-09-30T00:48:14;9.07;;;2.15;;
37453;SDS011;23315;52.078;4.756;2023-09-30T00:50:39;6.85;;;2.28;;
37453;SDS011;23315;52.078;4.756;2023-09-30T00:53:05;8.75;;;2.35;;
37453;SDS011;23315;52.078;4.756;2023-09-30T00:55:30;14.13;;;2.85;;
37453;SDS011;23315;52.078;4.756;2023-09-30T00:57:56;10.45;;;2.90;;
37453;SDS011;23315;52.078;4.756;2023-09-30T01:00:21;7.15;;;1.90;;
37453;SDS011;23315;52.078;4.756;2023-09-30T01:02:50;6.75;;;2.47;;
37453;SDS011;23315;52.078;4.756;2023-09-30T01:05:18;8.43;;;2.05;;
37453;SDS011;23315;52.078;4.756;2023-09-30T01:07:43;8.60;;;2.78;;
37453;SDS011;23315;52.078;4.756;2023-09-30T01:10:09;5.07;;;1.63;;
37453;SDS011;23315;52.078;4.756;2023-09-30T01:12:34;9.23;;;2.40;;
37453;SDS011;23315;52.078;4.756;2023-09-30T01:15:00;8.82;;;3.05;;
37453;SDS011;23315;52.078;4.756;2023-09-30T01:17:25;9.15;;;2.65;;
37453;SDS011;23315;52.078;4.756;2023-09-30T01:19:51;9.77;;;2.00;;
37453;SDS011;23315;52.078;4.756;2023-09-30T01:22:17;6.97;;;2.33;;
37453;SDS011;23315;52.078;4.756;2023-09-30T01:24:42;9.43;;;3.00;;
37453;SDS011;23315;52.078;4.756;2023-09-30T01:27:08;5.68;;;2.00;;
37453;SDS011;23315;52.078;4.756;2023-09-30T01:29:34;7.32;;;2.53;;
37453;SDS011;23315;52.078;4.756;2023-09-30T01:32:00;13.15;;;2.30;;
37453;SDS011;23315;52.078;4.756;2023-09-30T01:34:26;10.15;;;2.30;;
37453;SDS011;23315;52.078;4.756;2023-09-30T01:36:51;9.23;;;2.65;;
37453;SDS011;23315;52.078;4.756;2023-09-30T01:39:17;10.15;;;2.30;;
37453;SDS011;23315;52.078;4.756;2023-09-30T01:41:42;6.53;;;2.15;;
37453;SDS011;23315;52.078;4.756;2023-09-30T01:44:08;7.82;;;2.38;;
37453;SDS011;23315;52.078;4.756;2023-09-30T01:46:34;4.32;;;2.08;;
37453;SDS011;23315;52.078;4.756;2023-09-30T01:48:59;8.90;;;2.35;;
37453;SDS011;23315;52.078;4.756;2023-09-30T01:51:25;7.10;;;1.85;;
37453;SDS011;23315;52.078;4.756;2023-09-30T01:53:50;6.57;;;1.92;;
37453;SDS011;23315;52.078;4.756;2023-09-30T01:56:16;6.30;;;2.17;;
37453;SDS011;23315;52.078;4.756;2023-09-30T01:58:41;6.10;;;2.10;;
37453;SDS011;23315;52.078;4.756;2023-09-30T02:01:07;7.72;;;2.13;;
37453;SDS011;23315;52.078;4.756;2023-09-30T02:03:33;7.90;;;2.60;;
37453;SDS011;23315;52.078;4.756;2023-09-30T02:05:58;5.38;;;1.85;;
37453;SDS011;23315;52.078;4.756;2023-09-30T02:08:23;5.43;;;1.83;;
37453;SDS011;23315;52.078;4.756;2023-09-30T02:10:49;7.88;;;2.53;;
37453;SDS011;23315;52.078;4.756;2023-09-30T02:13:16;6.57;;;2.40;;
37453;SDS011;23315;52.078;4.756;2023-09-30T02:15:41;7.32;;;2.10;;
37453;SDS011;23315;52.078;4.756;2023-09-30T02:18:06;14.55;;;3.03;;
37453;SDS011;23315;52.078;4.756;2023-09-30T02:20:32;6.80;;;2.50;;
37453;SDS011;23315;52.078;4.756;2023-09-30T02:22:57;10.77;;;2.45;;
37453;SDS011;23315;52.078;4.756;2023-09-30T02:25:24;5.63;;;1.98;;
37453;SDS011;23315;52.078;4.756;2023-09-30T02:27:49;10.18;;;3.00;;
37453;SDS011;23315;52.078;4.756;2023-09-30T02:30:15;7.85;;;2.50;;
37453;SDS011;23315;52.078;4.756;2023-09-30T02:32:41;8.02;;;2.67;;
37453;SDS011;23315;52.078;4.756;2023-09-30T02:35:07;7.07;;;2.10;;
37453;SDS011;23315;52.078;4.756;2023-09-30T02:37:36;6.40;;;2.15;;
37453;SDS011;23315;52.078;4.756;2023-09-30T02:40:05;7.68;;;2.53;;
37453;SDS011;23315;52.078;4.756;2023-09-30T02:42:36;6.40;;;2.30;;
37453;SDS011;23315;52.078;4.756;2023-09-30T02:45:02;7.18;;;2.67;;
37453;SDS011;23315;52.078;4.756;2023-09-30T02:47:29;7.72;;;2.08;;
37453;SDS011;23315;52.078;4.756;2023-09-30T02:49:57;8.10;;;2.88;;
37453;SDS011;23315;52.078;4.756;2023-09-30T02:52:26;9.63;;;3.05;;
37453;SDS011;23315;52.078;4.756;2023-09-30T02:54:52;7.00;;;2.40;;
37453;SDS011;23315;52.078;4.756;2023-09-30T02:57:17;8.63;;;2.70;;
37453;SDS011;23315;52.078;4.756;2023-09-30T02:59:43;9.35;;;2.58;;
37453;SDS011;23315;52.078;4.756;2023-09-30T03:02:09;6.78;;;2.30;;
37453;SDS011;23315;52.078;4.756;2023-09-30T03:04:36;8.55;;;2.13;;
37453;SDS011;23315;52.078;4.756;2023-09-30T03:07:01;9.57;;;2.17;;
37453;SDS011;23315;52.078;4.756;2023-09-30T03:09:27;7.72;;;2.20;;
37453;SDS011;23315;52.078;4.756;2023-09-30T03:11:53;8.63;;;2.13;;
37453;SDS011;23315;52.078;4.756;2023-09-30T03:14:21;4.40;;;2.20;;
37453;SDS011;23315;52.078;4.756;2023-09-30T03:16:47;6.03;;;2.17;;
37453;SDS011;23315;52.078;4.756;2023-09-30T03:19:13;7.80;;;2.78;;
37453;SDS011;23315;52.078;4.756;2023-09-30T03:21:41;8.32;;;2.30;;
37453;SDS011;23315;52.078;4.756;2023-09-30T03:24:07;8.23;;;2.85;;
37453;SDS011;23315;52.078;4.756;2023-09-30T03:26:33;4.60;;;2.25;;
37453;SDS011;23315;52.078;4.756;2023-09-30T03:28:59;6.85;;;2.20;;
37453;SDS011;23315;52.078;4.756;2023-09-30T03:31:24;7.80;;;2.28;;
37453;SDS011;23315;52.078;4.756;2023-09-30T03:33:50;8.30;;;2.45;;
37453;SDS011;23315;52.078;4.756;2023-09-30T03:36:19;7.97;;;2.13;;
37453;SDS011;23315;52.078;4.756;2023-09-30T03:38:45;8.68;;;2.42;;
37453;SDS011;23315;52.078;4.756;2023-09-30T03:41:10;4.18;;;1.85;;
37453;SDS011;23315;52.078;4.756;2023-09-30T03:43:38;7.53;;;2.33;;
37453;SDS011;23315;52.078;4.756;2023-09-30T03:46:09;7.68;;;2.95;;
37453;SDS011;23315;52.078;4.756;2023-09-30T03:48:34;5.28;;;2.33;;
37453;SDS011;23315;52.078;4.756;2023-09-30T03:51:10;10.85;;;2.20;;
37453;SDS011;23315;52.078;4.756;2023-09-30T03:53:43;4.72;;;2.03;;
37453;SDS011;23315;52.078;4.756;2023-09-30T03:56:11;5.95;;;2.15;;
37453;SDS011;23315;52.078;4.756;2023-09-30T03:58:41;4.95;;;1.83;;
37453;SDS011;23315;52.078;4.756;2023-09-30T04:01:07;6.28;;;2.00;;
37453;SDS011;23315;52.078;4.756;2023-09-30T04:03:33;8.70;;;2.05;;
37453;SDS011;23315;52.078;4.756;2023-09-30T04:05:59;6.78;;;2.15;;
37453;SDS011;23315;52.078;4.756;2023-09-30T04:08:26;6.25;;;2.00;;
37453;SDS011;23315;52.078;4.756;2023-09-30T04:10:51;4.55;;;2.75;;
37453;SDS011;23315;52.078;4.756;2023-09-30T04:13:16;6.18;;;2.10;;
37453;SDS011;23315;52.078;4.756;2023-09-30T04:15:42;8.63;;;2.72;;
37453;SDS011;23315;52.078;4.756;2023-09-30T04:18:09;6.45;;;2.63;;
37453;SDS011;23315;52.078;4.756;2023-09-30T04:20:36;5.47;;;2.50;;
37453;SDS011;23315;52.078;4.756;2023-09-30T04:23:04;8.65;;;2.70;;
37453;SDS011;23315;52.078;4.756;2023-09-30T04:25:31;8.77;;;2.63;;
37453;SDS011;23315;52.078;4.756;2023-09-30T04:27:57;6.32;;;2.60;;
37453;SDS011;23315;52.078;4.756;2023-09-30T04:30:22;8.60;;;2.85;;
37453;SDS011;23315;52.078;4.756;2023-09-30T04:32:48;5.75;;;1.90;;
37453;SDS011;23315;52.078;4.756;2023-09-30T04:35:13;6.30;;;2.65;;
37453;SDS011;23315;52.078;4.756;2023-09-30T04:37:38;7.88;;;3.25;;
37453;SDS011;23315;52.078;4.756;2023-09-30T04:40:04;8.82;;;2.42;;
37453;SDS011;23315;52.078;4.756;2023-09-30T04:42:41;5.72;;;2.47;;
37453;SDS011;23315;52.078;4.756;2023-09-30T04:45:10;4.72;;;2.92;;
37453;SDS011;23315;52.078;4.756;2023-09-30T04:47:36;5.65;;;2.47;;
37453;SDS011;23315;52.078;4.756;2023-09-30T04:50:04;7.22;;;3.40;;
37453;SDS011;23315;52.078;4.756;2023-09-30T04:52:33;7.25;;;3.03;;
37453;SDS011;23315;52.078;4.756;2023-09-30T04:54:59;6.60;;;2.95;;
37453;SDS011;23315;52.078;4.756;2023-09-30T04:57:25;7.05;;;3.20;;
37453;SDS011;23315;52.078;4.756;2023-09-30T04:59:51;5.50;;;2.90;;
37453;SDS011;23315;52.078;4.756;2023-09-30T05:02:17;8.65;;;3.03;;
37453;SDS011;23315;52.078;4.756;2023-09-30T05:04:42;6.20;;;3.10;;
37453;SDS011;23315;52.078;4.756;2023-09-30T05:07:08;8.10;;;2.35;;
37453;SDS011;23315;52.078;4.756;2023-09-30T05:09:33;6.82;;;3.70;;
37453;SDS011;23315;52.078;4.756;2023-09-30T05:11:59;7.40;;;3.03;;
37453;SDS011;23315;52.078;4.756;2023-09-30T05:14:24;11.40;;;4.05;;
37453;SDS011;23315;52.078;4.756;2023-09-30T05:16:50;6.57;;;3.53;;
37453;SDS011;23315;52.078;4.756;2023-09-30T05:19:15;5.60;;;2.92;;
37453;SDS011;23315;52.078;4.756;2023-09-30T05:21:41;9.48;;;3.22;;
37453;SDS011;23315;52.078;4.756;2023-09-30T05:24:07;9.70;;;3.15;;
37453;SDS011;23315;52.078;4.756;2023-09-30T05:26:33;8.85;;;3.22;;
37453;SDS011;23315;52.078;4.756;2023-09-30T05:28:59;8.13;;;3.83;;
37453;SDS011;23315;52.078;4.756;2023-09-30T05:31:24;6.88;;;3.55;;
37453;SDS011;23315;52.078;4.756;2023-09-30T05:33:50;10.80;;;4.32;;
37453;SDS011;23315;52.078;4.756;2023-09-30T05:36:15;9.30;;;3.97;;
37453;SDS011;23315;52.078;4.756;2023-09-30T05:38:41;8.95;;;3.60;;
37453;SDS011;23315;52.078;4.756;2023-09-30T05:41:07;6.80;;;3.75;;
37453;SDS011;23315;52.078;4.756;2023-09-30T05:43:32;7.38;;;3.28;;
37453;SDS011;23315;52.078;4.756;2023-09-30T05:45:58;8.25;;;3.92;;
37453;SDS011;23315;52.078;4.756;2023-09-30T05:48:23;10.73;;;3.70;;
37453;SDS011;23315;52.078;4.756;2023-09-30T05:50:49;10.57;;;4.22;;
37453;SDS011;23315;52.078;4.756;2023-09-30T05:53:14;7.45;;;3.90;;
37453;SDS011;23315;52.078;4.756;2023-09-30T05:55:40;7.70;;;3.40;;
37453;SDS011;23315;52.078;4.756;2023-09-30T05:58:12;7.63;;;4.05;;
37453;SDS011;23315;52.078;4.756;2023-09-30T06:00:38;11.27;;;3.78;;
37453;SDS011;23315;52.078;4.756;2023-09-30T06:03:05;10.95;;;4.57;;
37453;SDS011;23315;52.078;4.756;2023-09-30T06:05:31;9.25;;;4.40;;
37453;SDS011;23315;52.078;4.756;2023-09-30T06:07:58;10.32;;;4.18;;
37453;SDS011;23315;52.078;4.756;2023-09-30T06:10:24;10.65;;;4.15;;
37453;SDS011;23315;52.078;4.756;2023-09-30T06:12:51;8.25;;;3.83;;
37453;SDS011;23315;52.078;4.756;2023-09-30T06:15:20;9.13;;;4.60;;
37453;SDS011;23315;52.078;4.756;2023-09-30T06:17:49;10.93;;;4.93;;
37453;SDS011;23315;52.078;4.756;2023-09-30T06:20:17;8.60;;;4.45;;
37453;SDS011;23315;52.078;4.756;2023-09-30T06:22:43;9.40;;;5.55;;
37453;SDS011;23315;52.078;4.756;2023-09-30T06:25:10;10.00;;;4.40;;
37453;SDS011;23315;52.078;4.756;2023-09-30T06:27:37;8.02;;;4.90;;
37453;SDS011;23315;52.078;4.756;2023-09-30T06:30:03;5.03;;;3.70;;
37453;SDS011;23315;52.078;4.756;2023-09-30T06:32:30;9.48;;;4.53;;
37453;SDS011;23315;52.078;4.756;2023-09-30T06:34:55;9.15;;;4.47;;
37453;SDS011;23315;52.078;4.756;2023-09-30T06:37:21;10.63;;;5.55;;
37453;SDS011;23315;52.078;4.756;2023-09-30T06:39:46;8.45;;;5.13;;
37453;SDS011;23315;52.078;4.756;2023-09-30T06:42:13;10.43;;;5.15;;
37453;SDS011;23315;52.078;4.756;2023-09-30T06:44:39;9.98;;;5.13;;
37453;SDS011;23315;52.078;4.756;2023-09-30T06:47:04;7.72;;;4.05;;
37453;SDS011;23315;52.078;4.756;2023-09-30T06:49:33;10.27;;;5.50;;
37453;SDS011;23315;52.078;4.756;2023-09-30T06:51:59;8.18;;;4.97;;
37453;SDS011;23315;52.078;4.756;2023-09-30T06:54:24;11.00;;;5.82;;
37453;SDS011;23315;52.078;4.756;2023-09-30T06:56:49;13.32;;;6.05;;
37453;SDS011;23315;52.078;4.756;2023-09-30T06:59:15;12.25;;;5.93;;
37453;SDS011;23315;52.078;4.756;2023-09-30T07:01:40;13.00;;;5.22;;
37453;SDS011;23315;52.078;4.756;2023-09-30T07:04:05;12.80;;;5.35;;
37453;SDS011;23315;52.078;4.756;2023-09-30T07:06:31;8.52;;;4.85;;
37453;SDS011;23315;52.078;4.756;2023-09-30T07:08:56;8.60;;;5.22;;
37453;SDS011;23315;52.078;4.756;2023-09-30T07:11:31;9.10;;;4.55;;
37453;SDS011;23315;52.078;4.756;2023-09-30T07:13:59;10.88;;;3.72;;
37453;SDS011;23315;52.078;4.756;2023-09-30T07:16:25;10.07;;;3.30;;
37453;SDS011;23315;52.078;4.756;2023-09-30T07:18:50;11.40;;;3.95;;
37453;SDS011;23315;52.078;4.756;2023-09-30T07:21:16;7.65;;;2.83;;
37453;SDS011;23315;52.078;4.756;2023-09-30T07:23:41;7.53;;;2.97;;
37453;SDS011;23315;52.078;4.756;2023-09-30T07:26:07;7.95;;;2.53;;
37453;SDS011;23315;52.078;4.756;2023-09-30T07:28:33;6.63;;;2.88;;
37453;SDS011;23315;52.078;4.756;2023-09-30T07:30:58;6.72;;;2.70;;
37453;SDS011;23315;52.078;4.756;2023-09-30T07:33:24;5.07;;;2.30;;
37453;SDS011;23315;52.078;4.756;2023-09-30T07:35:49;7.82;;;3.35;;
37453;SDS011;23315;52.078;4.756;2023-09-30T07:38:14;10.00;;;3.38;;
37453;SDS011;23315;52.078;4.756;2023-09-30T07:40:40;8.00;;;3.08;;
37453;SDS011;23315;52.078;4.756;2023-09-30T07:43:05;9.55;;;3.10;;
37453;SDS011;23315;52.078;4.756;2023-09-30T07:45:31;7.60;;;2.65;;
37453;SDS011;23315;52.078;4.756;2023-09-30T07:47:56;5.85;;;2.65;;
37453;SDS011;23315;52.078;4.756;2023-09-30T07:50:23;8.35;;;2.20;;
37453;SDS011;23315;52.078;4.756;2023-09-30T07:52:49;11.23;;;2.80;;
37453;SDS011;23315;52.078;4.756;2023-09-30T07:55:14;6.55;;;2.22;;
37453;SDS011;23315;52.078;4.756;2023-09-30T07:57:41;7.07;;;2.20;;
37453;SDS011;23315;52.078;4.756;2023-09-30T08:00:08;8.18;;;2.20;;
37453;SDS011;23315;52.078;4.756;2023-09-30T08:02:39;9.05;;;2.75;;
37453;SDS011;23315;52.078;4.756;2023-09-30T08:05:05;5.82;;;2.25;;
37453;SDS011;23315;52.078;4.756;2023-09-30T08:07:31;7.60;;;2.38;;
37453;SDS011;23315;52.078;4.756;2023-09-30T08:09:56;7.30;;;2.83;;
37453;SDS011;23315;52.078;4.756;2023-09-30T08:12:22;6.30;;;2.40;;
37453;SDS011;23315;52.078;4.756;2023-09-30T08:14:47;9.35;;;1.77;;
37453;SDS011;23315;52.078;4.756;2023-09-30T08:17:13;6.85;;;2.00;;
37453;SDS011;23315;52.078;4.756;2023-09-30T08:19:39;6.18;;;2.15;;
37453;SDS011;23315;52.078;4.756;2023-09-30T08:22:05;9.25;;;2.50;;
37453;SDS011;23315;52.078;4.756;2023-09-30T08:24:31;5.82;;;2.22;;
37453;SDS011;23315;52.078;4.756;2023-09-30T08:26:57;2.85;;;1.52;;
37453;SDS011;23315;52.078;4.756;2023-09-30T08:29:22;6.03;;;1.50;;
37453;SDS011;23315;52.078;4.756;2023-09-30T08:31:48;3.15;;;1.42;;
37453;SDS011;23315;52.078;4.756;2023-09-30T08:34:15;7.68;;;1.48;;
37453;SDS011;23315;52.078;4.756;2023-09-30T08:36:42;6.47;;;1.60;;
37453;SDS011;23315;52.078;4.756;2023-09-30T08:39:07;6.93;;;1.67;;
37453;SDS011;23315;52.078;4.756;2023-09-30T08:41:35;2.90;;;1.13;;
37453;SDS011;23315;52.078;4.756;2023-09-30T08:44:01;7.00;;;1.60;;
37453;SDS011;23315;52.078;4.756;2023-09-30T08:46:30;8.10;;;1.90;;
37453;SDS011;23315;52.078;4.756;2023-09-30T08:48:57;6.28;;;1.52;;
37453;SDS011;23315;52.078;4.756;2023-09-30T08:51:29;4.55;;;1.60;;
37453;SDS011;23315;52.078;4.756;2023-09-30T08:53:56;4.45;;;1.38;;
37453;SDS011;23315;52.078;4.756;2023-09-30T08:56:26;7.05;;;1.65;;
37453;SDS011;23315;52.078;4.756;2023-09-30T08:59:02;7.03;;;1.40;;
37453;SDS011;23315;52.078;4.756;2023-09-30T09:01:29;7.40;;;1.38;;
37453;SDS011;23315;52.078;4.756;2023-09-30T09:03:55;8.35;;;1.67;;
37453;SDS011;23315;52.078;4.756;2023-09-30T09:06:22;6.45;;;1.52;;
37453;SDS011;23315;52.078;4.756;2023-09-30T09:08:48;6.15;;;1.63;;
37453;SDS011;23315;52.078;4.756;2023-09-30T09:11:13;6.45;;;1.30;;
37453;SDS011;23315;52.078;4.756;2023-09-30T09:13:52;8.38;;;2.65;;
37453;SDS011;23315;52.078;4.756;2023-09-30T09:16:22;7.60;;;1.42;;
37453;SDS011;23315;52.078;4.756;2023-09-30T09:18:48;5.25;;;1.63;;
37453;SDS011;23315;52.078;4.756;2023-09-30T09:21:21;4.68;;;1.20;;
37453;SDS011;23315;52.078;4.756;2023-09-30T09:23:53;4.00;;;1.58;;
37453;SDS011;23315;52.078;4.756;2023-09-30T09:29:00;7.90;;;1.40;;
37453;SDS011;23315;52.078;4.756;2023-09-30T09:31:30;5.40;;;1.38;;
37453;SDS011;23315;52.078;4.756;2023-09-30T09:33:57;5.50;;;1.40;;
37453;SDS011;23315;52.078;4.756;2023-09-30T09:36:37;5.90;;;1.70;;
37453;SDS011;23315;52.078;4.756;2023-09-30T09:39:04;8.10;;;1.33;;
37453;SDS011;23315;52.078;4.756;2023-09-30T09:41:30;6.47;;;1.25;;
37453;SDS011;23315;52.078;4.756;2023-09-30T09:43:55;6.38;;;1.70;;
37453;SDS011;23315;52.078;4.756;2023-09-30T09:46:24;8.90;;;1.58;;
37453;SDS011;23315;52.078;4.756;2023-09-30T09:48:50;9.07;;;2.03;;
37453;SDS011;23315;52.078;4.756;2023-09-30T09:51:17;7.40;;;1.98;;
37453;SDS011;23315;52.078;4.756;2023-09-30T09:53:43;6.88;;;1.60;;
37453;SDS011;23315;52.078;4.756;2023-09-30T09:56:09;9.38;;;1.80;;
37453;SDS011;23315;52.078;4.756;2023-09-30T09:58:35;5.63;;;1.33;;
37453;SDS011;23315;52.078;4.756;2023-09-30T10:01:03;7.35;;;1.60;;
37453;SDS011;23315;52.078;4.756;2023-09-30T10:03:32;6.25;;;1.30;;
37453;SDS011;23315;52.078;4.756;2023-09-30T10:05:58;4.95;;;2.00;;
37453;SDS011;23315;52.078;4.756;2023-09-30T10:08:35;8.50;;;1.80;;
37453;SDS011;23315;52.078;4.756;2023-09-30T10:11:05;6.82;;;1.80;;
37453;SDS011;23315;52.078;4.756;2023-09-30T10:21:37;11.10;;;2.20;;
37453;SDS011;23315;52.078;4.756;2023-09-30T10:29:54;5.22;;;1.67;;
37453;SDS011;23315;52.078;4.756;2023-09-30T10:32:22;9.25;;;1.35;;
37453;SDS011;23315;52.078;4.756;2023-09-30T10:34:48;5.65;;;1.60;;
37453;SDS011;23315;52.078;4.756;2023-09-30T10:37:20;5.88;;;1.70;;
37453;SDS011;23315;52.078;4.756;2023-09-30T10:39:52;7.25;;;1.98;;
37453;SDS011;23315;52.078;4.756;2023-09-30T10:50:50;6.22;;;1.65;;
37453;SDS011;23315;52.078;4.756;2023-09-30T10:53:15;10.27;;;2.25;;
37453;SDS011;23315;52.078;4.756;2023-09-30T10:55:43;7.50;;;1.70;;
37453;SDS011;23315;52.078;4.756;2023-09-30T10:58:10;9.43;;;2.15;;
37453;SDS011;23315;52.078;4.756;2023-09-30T11:00:36;5.50;;;1.38;;
37453;SDS011;23315;52.078;4.756;2023-09-30T11:03:03;8.70;;;1.52;;
37453;SDS011;23315;52.078;4.756;2023-09-30T11:05:30;10.40;;;2.00;;
37453;SDS011;23315;52.078;4.756;2023-09-30T11:07:59;7.68;;;2.20;;
37453;SDS011;23315;52.078;4.756;2023-09-30T11:10:28;7.68;;;1.80;;
37453;SDS011;23315;52.078;4.756;2023-09-30T11:12:56;5.82;;;1.33;;
37453;SDS011;23315;52.078;4.756;2023-09-30T11:15:22;8.05;;;1.80;;
37453;SDS011;23315;52.078;4.756;2023-09-30T11:17:48;6.75;;;1.48;;
37453;SDS011;23315;52.078;4.756;2023-09-30T11:20:16;6.53;;;1.73;;
37453;SDS011;23315;52.078;4.756;2023-09-30T11:22:43;8.48;;;1.80;;
37453;SDS011;23315;52.078;4.756;2023-09-30T11:25:14;6.75;;;1.60;;
37453;SDS011;23315;52.078;4.756;2023-09-30T11:27:44;7.47;;;1.77;;
37453;SDS011;23315;52.078;4.756;2023-09-30T11:30:10;10.90;;;2.05;;
37453;SDS011;23315;52.078;4.756;2023-09-30T11:32:37;11.65;;;2.30;;
37453;SDS011;23315;52.078;4.756;2023-09-30T11:35:04;5.65;;;1.65;;
37453;SDS011;23315;52.078;4.756;2023-09-30T11:37:34;4.70;;;1.80;;
37453;SDS011;23315;52.078;4.756;2023-09-30T11:40:09;6.75;;;1.80;;
37453;SDS011;23315;52.078;4.756;2023-09-30T11:42:36;5.30;;;1.52;;
37453;SDS011;23315;52.078;4.756;2023-09-30T11:45:02;7.90;;;1.58;;
37453;SDS011;23315;52.078;4.756;2023-09-30T11:47:28;12.88;;;2.38;;
37453;SDS011;23315;52.078;4.756;2023-09-30T11:49:54;9.18;;;1.63;;
37453;SDS011;23315;52.078;4.756;2023-09-30T11:52:25;6.20;;;2.05;;
37453;SDS011;23315;52.078;4.756;2023-09-30T11:54:51;6.47;;;1.85;;
37453;SDS011;23315;52.078;4.756;2023-09-30T11:57:18;5.53;;;1.30;;
37453;SDS011;23315;52.078;4.756;2023-09-30T11:59:44;9.35;;;2.22;;
37453;SDS011;23315;52.078;4.756;2023-09-30T12:02:14;7.10;;;1.60;;
37453;SDS011;23315;52.078;4.756;2023-09-30T12:04:40;9.27;;;2.40;;
37453;SDS011;23315;52.078;4.756;2023-09-30T12:07:06;8.70;;;2.20;;
37453;SDS011;23315;52.078;4.756;2023-09-30T12:09:32;5.47;;;1.30;;
37453;SDS011;23315;52.078;4.756;2023-09-30T12:11:57;6.32;;;1.65;;
37453;SDS011;23315;52.078;4.756;2023-09-30T12:14:23;7.25;;;2.13;;
37453;SDS011;23315;52.078;4.756;2023-09-30T12:16:49;4.72;;;1.58;;
37453;SDS011;23315;52.078;4.756;2023-09-30T12:19:16;8.43;;;2.35;;
37453;SDS011;23315;52.078;4.756;2023-09-30T12:21:43;7.13;;;1.55;;
37453;SDS011;23315;52.078;4.756;2023-09-30T12:24:08;7.28;;;1.85;;
37453;SDS011;23315;52.078;4.756;2023-09-30T12:26:34;10.35;;;2.35;;
37453;SDS011;23315;52.078;4.756;2023-09-30T12:29:01;5.95;;;1.30;;
37453;SDS011;23315;52.078;4.756;2023-09-30T12:31:26;9.48;;;2.10;;
37453;SDS011;23315;52.078;4.756;2023-09-30T12:33:52;5.40;;;1.80;;
37453;SDS011;23315;52.078;4.756;2023-09-30T12:36:19;7.90;;;1.88;;
37453;SDS011;23315;52.078;4.756;2023-09-30T12:38:44;8.10;;;2.33;;
37453;SDS011;23315;52.078;4.756;2023-09-30T12:41:10;8.75;;;1.65;;
37453;SDS011;23315;52.078;4.756;2023-09-30T12:43:35;6.32;;;1.85;;
37453;SDS011;23315;52.078;4.756;2023-09-30T12:46:02;7.28;;;1.42;;
37453;SDS011;23315;52.078;4.756;2023-09-30T12:48:27;7.60;;;1.75;;
37453;SDS011;23315;52.078;4.756;2023-09-30T12:50:52;6.65;;;1.55;;
37453;SDS011;23315;52.078;4.756;2023-09-30T12:53:18;8.95;;;2.58;;
37453;SDS011;23315;52.078;4.756;2023-09-30T12:55:43;5.28;;;1.58;;
37453;SDS011;23315;52.078;4.756;2023-09-30T12:58:09;5.45;;;1.50;;
37453;SDS011;23315;52.078;4.756;2023-09-30T13:00:34;9.77;;;1.85;;
37453;SDS011;23315;52.078;4.756;2023-09-30T13:03:01;4.90;;;1.85;;
37453;SDS011;23315;52.078;4.756;2023-09-30T13:05:27;7.07;;;2.00;;
37453;SDS011;23315;52.078;4.756;2023-09-30T13:07:54;4.47;;;1.38;;
37453;SDS011;23315;52.078;4.756;2023-09-30T13:10:20;10.68;;;2.20;;
37453;SDS011;23315;52.078;4.756;2023-09-30T13:12:47;8.80;;;2.42;;
37453;SDS011;23315;52.078;4.756;2023-09-30T13:15:14;9.30;;;2.20;;
37453;SDS011;23315;52.078;4.756;2023-09-30T13:17:40;12.55;;;2.20;;
37453;SDS011;23315;52.078;4.756;2023-09-30T13:20:05;7.68;;;1.98;;
37453;SDS011;23315;52.078;4.756;2023-09-30T13:22:33;6.00;;;1.92;;
37453;SDS011;23315;52.078;4.756;2023-09-30T13:25:02;5.70;;;1.92;;
37453;SDS011;23315;52.078;4.756;2023-09-30T13:27:28;9.68;;;2.70;;
37453;SDS011;23315;52.078;4.756;2023-09-30T13:29:54;13.48;;;2.60;;
37453;SDS011;23315;52.078;4.756;2023-09-30T13:32:22;10.20;;;2.67;;
37453;SDS011;23315;52.078;4.756;2023-09-30T13:34:47;7.05;;;1.80;;
37453;SDS011;23315;52.078;4.756;2023-09-30T13:37:13;9.52;;;2.28;;
37453;SDS011;23315;52.078;4.756;2023-09-30T13:39:39;8.68;;;2.88;;
37453;SDS011;23315;52.078;4.756;2023-09-30T13:42:04;7.68;;;2.05;;
37453;SDS011;23315;52.078;4.756;2023-09-30T13:44:32;6.65;;;1.83;;
37453;SDS011;23315;52.078;4.756;2023-09-30T13:46:57;9.70;;;2.28;;
37453;SDS011;23315;52.078;4.756;2023-09-30T13:49:23;10.82;;;2.50;;
37453;SDS011;23315;52.078;4.756;2023-09-30T13:51:48;11.75;;;2.35;;
37453;SDS011;23315;52.078;4.756;2023-09-30T13:54:13;11.95;;;2.58;;
37453;SDS011;23315;52.078;4.756;2023-09-30T13:56:40;11.07;;;2.35;;
37453;SDS011;23315;52.078;4.756;2023-09-30T13:59:05;10.57;;;2.38;;
37453;SDS011;23315;52.078;4.756;2023-09-30T14:01:31;10.70;;;2.38;;
37453;SDS011;23315;52.078;4.756;2023-09-30T14:03:56;12.20;;;2.92;;
37453;SDS011;23315;52.078;4.756;2023-09-30T14:06:23;8.48;;;2.25;;
37453;SDS011;23315;52.078;4.756;2023-09-30T14:08:48;9.25;;;2.45;;
37453;SDS011;23315;52.078;4.756;2023-09-30T14:11:15;13.63;;;3.03;;
37453;SDS011;23315;52.078;4.756;2023-09-30T14:13:40;8.88;;;2.35;;
37453;SDS011;23315;52.078;4.756;2023-09-30T14:16:06;9.75;;;2.65;;
37453;SDS011;23315;52.078;4.756;2023-09-30T14:18:34;10.48;;;2.75;;
37453;SDS011;23315;52.078;4.756;2023-09-30T14:21:01;9.15;;;2.45;;
37453;SDS011;23315;52.078;4.756;2023-09-30T14:23:27;13.45;;;3.15;;
37453;SDS011;23315;52.078;4.756;2023-09-30T14:25:54;11.27;;;3.20;;
37453;SDS011;23315;52.078;4.756;2023-09-30T14:28:20;12.07;;;2.55;;
37453;SDS011;23315;52.078;4.756;2023-09-30T14:30:46;12.57;;;2.22;;
37453;SDS011;23315;52.078;4.756;2023-09-30T14:33:12;9.43;;;2.28;;
37453;SDS011;23315;52.078;4.756;2023-09-30T14:35:37;12.75;;;2.95;;
37453;SDS011;23315;52.078;4.756;2023-09-30T14:38:03;10.00;;;3.08;;
37453;SDS011;23315;52.078;4.756;2023-09-30T14:40:29;10.48;;;2.80;;
37453;SDS011;23315;52.078;4.756;2023-09-30T14:42:55;9.77;;;2.83;;
37453;SDS011;23315;52.078;4.756;2023-09-30T14:45:20;13.63;;;2.92;;
37453;SDS011;23315;52.078;4.756;2023-09-30T14:47:46;8.95;;;1.80;;
37453;SDS011;23315;52.078;4.756;2023-09-30T14:50:12;9.38;;;2.28;;
37453;SDS011;23315;52.078;4.756;2023-09-30T14:52:37;11.52;;;2.65;;
37453;SDS011;23315;52.078;4.756;2023-09-30T14:55:03;8.65;;;2.30;;
37453;SDS011;23315;52.078;4.756;2023-09-30T14:57:28;10.23;;;2.78;;
37453;SDS011;23315;52.078;4.756;2023-09-30T14:59:54;10.02;;;2.83;;
37453;SDS011;23315;52.078;4.756;2023-09-30T15:02:23;12.27;;;3.05;;
37453;SDS011;23315;52.078;4.756;2023-09-30T15:04:48;10.30;;;2.45;;
37453;SDS011;23315;52.078;4.756;2023-09-30T15:07:14;11.18;;;2.42;;